INFORMACIÓN METAR y TAF
METAR FOR LEVD
ADDS - METARS form results

(1435 UTC 28 November 2022)
Data provider http://aviationweather.gov/metar/data/
 
METAR text: LEVD 281430Z 27012KT 9999 FEW029 10/03 Q1023
Conditions at: LEVD (VALLADOLID(MIL/C, ES) observed 1430 UTC 28 November 2022
Temperature: 10.0°C (50°F)
Dewpoint: 3.0°C (37°F) [RH = 62%]
Pressure (altimeter): 30.21 inches Hg (1023.0 mb)
Winds: from the W (270 degrees) at 14 MPH (12 knots; 6.2 m/s)
Visibility: 6 or more miles (10+ km)
Ceiling: at least 12,000 feet AGL
Clouds: few clouds at 2900 feet AGL
Weather: no significant weather observed at this time

METAR text: LEVD 281400Z 28012KT 240V300 9999 FEW022 10/04 Q1023
Conditions at: LEVD (VALLADOLID(MIL/C, ES) observed 1400 UTC 28 November 2022
Temperature: 10.0°C (50°F)
Dewpoint: 4.0°C (39°F) [RH = 66%]
Pressure (altimeter): 30.21 inches Hg (1023.0 mb)
Winds: from the W (280 degrees) at 14 MPH (12 knots; 6.2 m/s)
Visibility: 6 or more miles (10+ km)
Ceiling: at least 12,000 feet AGL
Clouds: few clouds at 2200 feet AGL
Weather: no significant weather observed at this time

Forecast for: LEVD (VALLADOLID(MIL/C, ES)
Text: TAF LEVD 281400Z 2815/2915 VRB05KT CAVOK TX10/2915Z TNM01/2906Z
Forecast period: 1500 UTC 28 November 2022 to 1500 UTC 29 November 2022
Forecast type: FROM: standard forecast or significant change
Winds: variable direction winds at 6 MPH (5 knots; 2.6 m/s)
Visibility: 6 or more miles (10+ km)
Ceiling: unknown
Clouds: missing
Weather: no significant weather forecast for this period
Text: TEMPO 2815/2818 29015KT
Forecast period: 1500 to 1800 UTC 28 November 2022
Forecast type: TEMPORARY: The following changes expected for less than half the time period
Winds: from the WNW (290 degrees) at 17 MPH (15 knots; 7.7 m/s)
Visibility: missing
Ceiling: unknown
Clouds: missing
Weather: no significant weather forecast for this period

 MAPA DE AEROPUERTO

 INFORMACIÓN DE PISTA
Pista 05 Longitud 9843 ft Ancho 197 ft
Elevación 2768 ft Umbral desplazado 0 ft Rumbo de pista 45
Pista 23 Longitud 9843 ft Ancho 197 ft
Elevación 2775 ft Umbral desplazado 0 ft Rumbo de pista 225
Pista 15 Longitud 2976 ft Ancho 197 ft
Elevación 2770 ft Umbral desplazado 0 ft Rumbo de pista 144
Pista 33 Longitud 2976 ft Ancho 197 ft
Elevación 2771 ft Umbral desplazado 0 ft Rumbo de pista 324

 FRECUANCIAS DEL AEROPUERTO
Tipo TWR Nombre TWR Frecuencia 122.2 MHZ

 RADIO AYUDAS DEL AEROPUERTO
Tipo TACAN Nombre Valladolid Frecuencia 108200 KHZ
Tipo NDB Nombre Valladolid Frecuencia 342 KHZ




Powered by Virtual Airlines Manager